Time,TemperatureF,DewpointF,PressureIn,WindDirection,WindDirectionDegrees,WindSpeedMPH,WindSpeedGustMPH,Humidity,HourlyPrecipIn,Conditions,Clouds,dailyrainin,SoftwareType,DateUTC
2013-04-14 00:00:00,25.0,21.1,29.94,SE,136,0.0,2.0,85,0.00,,,0.00,VWS V14.01,2013-04-14 06:00:00,
2013-04-14 00:05:00,25.0,21.1,29.94,SE,138,0.0,0.0,85,0.00,,,0.00,VWS V14.01,2013-04-14 06:05:00,
2013-04-14 00:10:00,24.8,20.9,29.94,SE,140,0.0,0.0,85,0.00,,,0.00,VWS V14.01,2013-04-14 06:10:00,
2013-04-14 00:15:00,24.8,20.9,29.94,SE,139,0.0,0.0,85,0.00,,,0.00,VWS V14.01,2013-04-14 06:15:00,
2013-04-14 00:20:00,24.8,20.9,29.92,ESE,120,0.0,0.0,85,0.00,,,0.00,VWS V14.01,2013-04-14 06:20:00,
2013-04-14 00:25:00,24.8,20.9,29.92,ESE,120,0.0,0.0,85,0.00,,,0.00,VWS V14.01,2013-04-14 06:25:00,
2013-04-14 00:30:00,24.7,20.8,29.92,ESE,120,0.0,0.0,85,0.00,,,0.00,VWS V14.01,2013-04-14 06:30:00,
2013-04-14 00:35:00,24.7,20.8,29.92,ESE,120,0.0,0.0,85,0.00,,,0.00,VWS V14.01,2013-04-14 06:35:00,
2013-04-14 00:40:00,24.7,20.8,29.92,ESE,120,0.0,0.0,85,0.00,,,0.00,VWS V14.01,2013-04-14 06:40:00,
2013-04-14 00:45:00,24.5,20.6,29.92,ESE,117,0.0,0.0,85,0.00,,,0.00,VWS V14.01,2013-04-14 06:45:00,
2013-04-14 00:50:00,24.5,20.6,29.93,ESE,109,0.0,0.0,85,0.00,,,0.00,VWS V14.01,2013-04-14 06:50:00,
2013-04-14 00:55:00,24.5,20.6,29.93,ESE,110,0.0,0.0,85,0.00,,,0.00,VWS V14.01,2013-04-14 06:55:00,
2013-04-14 01:00:00,24.4,20.5,29.93,ESE,116,0.0,0.0,85,0.00,,,0.00,VWS V14.01,2013-04-14 07:00:00,
2013-04-14 01:05:00,24.1,20.2,29.93,SSE,149,0.0,0.0,85,0.00,,,0.00,VWS V14.01,2013-04-14 07:05:00,
2013-04-14 01:10:00,24.1,20.2,29.93,SE,137,0.0,0.0,85,0.00,,,0.00,VWS V14.01,2013-04-14 07:10:00,
2013-04-14 01:15:00,23.9,20.1,29.94,SSW,204,0.0,0.0,85,0.00,,,0.00,VWS V14.01,2013-04-14 07:15:00,
2013-04-14 01:20:00,23.9,20.1,29.94,SSE,154,0.0,0.0,85,0.00,,,0.00,VWS V14.01,2013-04-14 07:20:00,
2013-04-14 01:25:00,23.8,20.0,29.94,SE,141,0.0,0.0,85,0.00,,,0.00,VWS V14.01,2013-04-14 07:25:00,
2013-04-14 01:30:00,23.8,20.0,29.94,SE,141,0.0,0.0,85,0.00,,,0.00,VWS V14.01,2013-04-14 07:30:00,
2013-04-14 01:35:00,23.8,20.0,29.94,SE,141,0.0,0.0,85,0.00,,,0.00,VWS V14.01,2013-04-14 07:35:00,
2013-04-14 01:40:00,23.9,20.3,29.94,SE,141,0.0,0.0,86,0.00,,,0.00,VWS V14.01,2013-04-14 07:40:00,
2013-04-14 01:45:00,23.9,20.3,29.94,SE,145,0.0,0.0,86,0.00,,,0.00,VWS V14.01,2013-04-14 07:45:00,
2013-04-14 01:50:00,23.9,20.3,29.94,SSE,168,0.0,0.0,86,0.00,,,0.00,VWS V14.01,2013-04-14 07:50:00,
2013-04-14 01:55:00,24.1,20.8,29.94,ESE,115,0.0,0.0,87,0.00,,,0.00,VWS V14.01,2013-04-14 07:55:00,
2013-04-14 02:00:00,24.2,20.9,29.95,ESE,115,0.0,0.0,87,0.00,,,0.00,VWS V14.01,2013-04-14 08:00:00,
2013-04-14 02:05:00,24.1,20.5,29.95,ESE,123,0.0,0.0,86,0.00,,,0.00,VWS V14.01,2013-04-14 08:05:00,
2013-04-14 02:10:00,24.1,20.5,29.95,SE,137,0.0,0.0,86,0.00,,,0.00,VWS V14.01,2013-04-14 08:10:00,
2013-04-14 02:15:00,24.1,20.5,29.95,SE,137,0.0,0.0,86,0.00,,,0.00,VWS V14.01,2013-04-14 08:15:00,
2013-04-14 02:20:00,24.1,20.5,29.95,SE,138,0.0,0.0,86,0.00,,,0.00,VWS V14.01,2013-04-14 08:20:00,
2013-04-14 02:25:00,24.1,20.5,29.95,SE,138,0.0,0.0,86,0.00,,,0.00,VWS V14.01,2013-04-14 08:25:00,
2013-04-14 02:30:00,24.1,20.5,29.95,SE,138,0.0,0.0,86,0.00,,,0.00,VWS V14.01,2013-04-14 08:30:00,
2013-04-14 02:35:00,24.1,20.5,29.95,SE,138,0.0,0.0,86,0.00,,,0.00,VWS V14.01,2013-04-14 08:35:00,
2013-04-14 02:40:00,23.9,20.3,29.95,SE,138,0.0,0.0,86,0.00,,,0.00,VWS V14.01,2013-04-14 08:40:00,
2013-04-14 02:45:00,23.9,20.3,29.96,SE,138,0.0,0.0,86,0.00,,,0.00,VWS V14.01,2013-04-14 08:45:00,
2013-04-14 02:50:00,23.9,20.3,29.96,SE,138,0.0,0.0,86,0.00,,,0.00,VWS V14.01,2013-04-14 08:50:00,
2013-04-14 02:55:00,23.9,20.3,29.96,SE,138,0.0,0.0,86,0.00,,,0.00,VWS V14.01,2013-04-14 08:55:00,
2013-04-14 03:00:00,23.9,20.3,29.96,SE,139,0.0,0.0,86,0.00,,,0.00,VWS V14.01,2013-04-14 09:00:00,
2013-04-14 03:05:00,23.8,20.0,29.96,SSE,164,0.0,0.0,85,0.00,,,0.00,VWS V14.01,2013-04-14 09:05:00,
2013-04-14 03:10:00,23.8,20.0,29.96,SSE,153,0.0,0.0,85,0.00,,,0.00,VWS V14.01,2013-04-14 09:10:00,
2013-04-14 03:15:00,23.8,20.0,29.97,SSE,153,0.0,0.0,85,0.00,,,0.00,VWS V14.01,2013-04-14 09:15:00,
2013-04-14 03:20:00,23.8,19.7,29.97,SE,124,0.0,0.0,84,0.00,,,0.00,VWS V14.01,2013-04-14 09:20:00,
2013-04-14 03:25:00,23.8,19.7,29.97,SE,139,0.0,0.0,84,0.00,,,0.00,VWS V14.01,2013-04-14 09:25:00,
2013-04-14 03:30:00,23.6,19.5,29.97,SE,139,0.0,0.0,84,0.00,,,0.00,VWS V14.01,2013-04-14 09:30:00,
2013-04-14 03:35:00,23.6,19.5,29.97,SE,144,0.0,0.0,84,0.00,,,0.00,VWS V14.01,2013-04-14 09:35:00,
2013-04-14 03:40:00,23.6,19.5,29.97,SE,144,0.0,0.0,84,0.00,,,0.00,VWS V14.01,2013-04-14 09:40:00,
2013-04-14 03:45:00,23.6,19.5,29.98,SE,144,0.0,0.0,84,0.00,,,0.00,VWS V14.01,2013-04-14 09:45:00,
2013-04-14 03:50:00,23.6,19.5,29.98,SE,144,0.0,0.0,84,0.00,,,0.00,VWS V14.01,2013-04-14 09:50:00,
2013-04-14 03:55:00,23.6,19.5,29.98,SE,144,0.0,0.0,84,0.00,,,0.00,VWS V14.01,2013-04-14 09:55:00,
2013-04-14 04:00:00,23.5,19.4,29.98,ESE,108,0.0,0.0,84,0.00,,,0.00,VWS V14.01,2013-04-14 10:00:00,
2013-04-14 04:05:00,23.5,19.4,29.98,ESE,108,0.0,0.0,84,0.00,,,0.00,VWS V14.01,2013-04-14 10:05:00,
2013-04-14 04:10:00,23.3,19.2,29.98,SE,131,0.0,0.0,84,0.00,,,0.00,VWS V14.01,2013-04-14 10:10:00,
2013-04-14 04:15:00,23.2,19.1,30.00,SSE,166,0.0,0.0,84,0.00,,,0.00,VWS V14.01,2013-04-14 10:15:00,
2013-04-14 04:20:00,23.2,19.1,30.00,SSE,166,0.0,0.0,84,0.00,,,0.00,VWS V14.01,2013-04-14 10:20:00,
2013-04-14 04:25:00,23.2,19.1,30.00,SE,145,0.0,0.0,84,0.00,,,0.00,VWS V14.01,2013-04-14 10:25:00,
2013-04-14 04:30:00,23.2,19.4,30.01,SE,125,0.0,0.0,85,0.00,,,0.00,VWS V14.01,2013-04-14 10:30:00,
2013-04-14 04:35:00,23.2,19.4,30.01,SSE,162,0.0,0.0,85,0.00,,,0.00,VWS V14.01,2013-04-14 10:35:00,
2013-04-14 04:40:00,23.2,19.4,30.01,SE,144,0.0,0.0,85,0.00,,,0.00,VWS V14.01,2013-04-14 10:40:00,
2013-04-14 04:45:00,23.2,19.4,30.01,SSE,159,0.0,0.0,85,0.00,,,0.00,VWS V14.01,2013-04-14 10:45:00,
2013-04-14 04:50:00,23.2,19.4,30.01,SSE,159,0.0,0.0,85,0.00,,,0.00,VWS V14.01,2013-04-14 10:50:00,
2013-04-14 04:55:00,23.0,19.2,30.01,SE,143,0.0,0.0,85,0.00,,,0.00,VWS V14.01,2013-04-14 10:55:00,
2013-04-14 05:00:00,23.0,19.2,30.01,SE,143,0.0,0.0,85,0.00,,,0.00,VWS V14.01,2013-04-14 11:00:00,
2013-04-14 05:05:00,23.2,19.6,30.01,ESE,122,0.0,0.0,86,0.00,,,0.00,VWS V14.01,2013-04-14 11:05:00,
2013-04-14 05:10:00,23.3,19.7,30.01,SSE,149,0.0,0.0,86,0.00,,,0.00,VWS V14.01,2013-04-14 11:10:00,
2013-04-14 05:15:00,23.3,19.5,30.03,East,79,0.0,0.0,85,0.00,,,0.00,VWS V14.01,2013-04-14 11:15:00,
2013-04-14 05:20:00,23.2,19.4,30.03,SE,140,0.0,0.0,85,0.00,,,0.00,VWS V14.01,2013-04-14 11:20:00,
2013-04-14 05:25:00,23.2,19.4,30.03,SE,141,0.0,0.0,85,0.00,,,0.00,VWS V14.01,2013-04-14 11:25:00,
2013-04-14 05:30:00,23.2,19.4,30.03,SE,140,0.0,0.0,85,0.00,,,0.00,VWS V14.01,2013-04-14 11:30:00,
2013-04-14 05:35:00,23.2,19.4,30.03,ESE,119,0.0,0.0,85,0.00,,,0.00,VWS V14.01,2013-04-14 11:35:00,
2013-04-14 05:40:00,23.0,19.2,30.03,ESE,120,0.0,0.0,85,0.00,,,0.00,VWS V14.01,2013-04-14 11:40:00,
2013-04-14 05:45:00,22.9,18.8,30.04,ESE,120,0.0,0.0,84,0.00,,,0.00,VWS V14.01,2013-04-14 11:45:00,
2013-04-14 05:50:00,22.9,19.1,30.04,ESE,120,0.0,0.0,85,0.00,,,0.00,VWS V14.01,2013-04-14 11:50:00,
2013-04-14 05:55:00,22.9,19.1,30.04,ESE,120,0.0,0.0,85,0.00,,,0.00,VWS V14.01,2013-04-14 11:55:00,
2013-04-14 06:00:00,22.9,19.1,30.04,ESE,120,0.0,0.0,85,0.00,,,0.00,VWS V14.01,2013-04-14 12:00:00,
2013-04-14 06:05:00,22.9,19.1,30.04,ESE,120,0.0,0.0,85,0.00,,,0.00,VWS V14.01,2013-04-14 12:05:00,
2013-04-14 06:10:00,22.9,19.1,30.04,SE,125,0.0,0.0,85,0.00,,,0.00,VWS V14.01,2013-04-14 12:10:00,
2013-04-14 06:15:00,22.9,19.1,30.05,SE,125,0.0,0.0,85,0.00,,,0.00,VWS V14.01,2013-04-14 12:15:00,
2013-04-14 06:20:00,22.9,19.1,30.05,SE,125,0.0,0.0,85,0.00,,,0.00,VWS V14.01,2013-04-14 12:20:00,
2013-04-14 06:25:00,22.9,19.1,30.05,SE,127,0.0,0.0,85,0.00,,,0.00,VWS V14.01,2013-04-14 12:25:00,
2013-04-14 06:30:00,22.9,19.1,30.05,SE,127,0.0,0.0,85,0.00,,,0.00,VWS V14.01,2013-04-14 12:30:00,
2013-04-14 06:35:00,22.9,19.1,30.05,SE,127,0.0,0.0,85,0.00,,,0.00,VWS V14.01,2013-04-14 12:35:00,
2013-04-14 06:40:00,22.9,19.1,30.05,SE,137,0.0,0.0,85,0.00,,,0.00,VWS V14.01,2013-04-14 12:40:00,
2013-04-14 06:45:00,22.9,19.4,30.05,SE,137,0.0,0.0,86,0.00,,,0.00,VWS V14.01,2013-04-14 12:45:00,
2013-04-14 06:50:00,22.9,19.1,30.05,SE,137,0.0,0.0,85,0.00,,,0.00,VWS V14.01,2013-04-14 12:50:00,
2013-04-14 06:55:00,22.9,19.1,30.05,SE,137,0.0,0.0,85,0.00,,,0.00,VWS V14.01,2013-04-14 12:55:00,
2013-04-14 07:00:00,22.9,19.1,30.05,SE,137,0.0,0.0,85,0.00,,,0.00,VWS V14.01,2013-04-14 13:00:00,
2013-04-14 07:05:00,22.9,19.1,30.06,SE,136,0.0,0.0,85,0.00,,,0.00,VWS V14.01,2013-04-14 13:05:00,
2013-04-14 07:10:00,22.9,19.1,30.06,SSE,152,0.0,0.0,85,0.00,,,0.00,VWS V14.01,2013-04-14 13:10:00,
2013-04-14 07:15:00,22.9,19.1,30.06,SSE,152,0.0,0.0,85,0.00,,,0.00,VWS V14.01,2013-04-14 13:15:00,
2013-04-14 07:20:00,22.9,19.1,30.07,SSE,152,0.0,0.0,85,0.00,,,0.00,VWS V14.01,2013-04-14 13:20:00,
2013-04-14 07:25:00,23.0,19.2,30.07,SSE,152,0.0,0.0,85,0.00,,,0.00,VWS V14.01,2013-04-14 13:25:00,
2013-04-14 07:30:00,23.0,19.2,30.07,SSE,152,0.0,0.0,85,0.00,,,0.00,VWS V14.01,2013-04-14 13:30:00,
2013-04-14 07:35:00,23.0,18.9,30.07,SSE,152,0.0,0.0,84,0.00,,,0.00,VWS V14.01,2013-04-14 13:35:00,
2013-04-14 07:40:00,23.2,19.1,30.07,SSE,152,0.0,0.0,84,0.00,,,0.00,VWS V14.01,2013-04-14 13:40:00,
2013-04-14 07:45:00,23.2,19.1,30.07,SSE,152,0.0,0.0,84,0.00,,,0.00,VWS V14.01,2013-04-14 13:45:00,
2013-04-14 07:50:00,23.2,19.1,30.08,SSE,152,0.0,0.0,84,0.00,,,0.00,VWS V14.01,2013-04-14 13:50:00,
2013-04-14 07:55:00,23.2,19.1,30.08,SSE,152,0.0,0.0,84,0.00,,,0.00,VWS V14.01,2013-04-14 13:55:00,
2013-04-14 08:00:00,23.3,19.2,30.08,SSE,152,0.0,0.0,84,0.00,,,0.00,VWS V14.01,2013-04-14 14:00:00,
2013-04-14 08:05:00,23.3,19.2,30.08,SSE,152,0.0,0.0,84,0.00,,,0.00,VWS V14.01,2013-04-14 14:05:00,
2013-04-14 08:10:00,23.5,19.7,30.08,SSE,152,0.0,0.0,85,0.00,,,0.00,VWS V14.01,2013-04-14 14:10:00,
2013-04-14 08:15:00,23.5,19.4,30.08,SSE,150,0.0,0.0,84,0.00,,,0.00,VWS V14.01,2013-04-14 14:15:00,
2013-04-14 08:20:00,23.5,19.4,30.09,SSE,150,0.0,0.0,84,0.00,,,0.00,VWS V14.01,2013-04-14 14:20:00,
2013-04-14 08:25:00,23.3,18.9,30.09,SSE,150,0.0,0.0,83,0.00,,,0.00,VWS V14.01,2013-04-14 14:25:00,
2013-04-14 08:30:00,23.3,19.2,30.09,SSE,148,0.0,0.0,84,0.00,,,0.00,VWS V14.01,2013-04-14 14:30:00,
2013-04-14 08:35:00,23.3,19.2,30.09,SE,144,0.0,0.0,84,0.00,,,0.00,VWS V14.01,2013-04-14 14:35:00,
2013-04-14 08:40:00,23.3,19.2,30.09,SE,144,0.0,0.0,84,0.00,,,0.00,VWS V14.01,2013-04-14 14:40:00,
2013-04-14 08:45:00,23.3,19.2,30.09,SE,145,0.0,0.0,84,0.00,,,0.00,VWS V14.01,2013-04-14 14:45:00,
2013-04-14 08:50:00,23.5,19.4,30.09,SE,145,0.0,0.0,84,0.00,,,0.00,VWS V14.01,2013-04-14 14:50:00,
2013-04-14 08:55:00,23.8,19.7,30.09,SE,145,0.0,0.0,84,0.00,,,0.00,VWS V14.01,2013-04-14 14:55:00,
2013-04-14 09:00:00,23.9,19.5,30.10,SE,144,0.0,0.0,83,0.00,,,0.00,VWS V14.01,2013-04-14 15:00:00,
2013-04-14 09:05:00,23.9,19.5,30.10,SE,144,0.0,0.0,83,0.00,,,0.00,VWS V14.01,2013-04-14 15:05:00,
2013-04-14 09:10:00,23.9,19.5,30.10,SE,143,0.0,0.0,83,0.00,,,0.00,VWS V14.01,2013-04-14 15:10:00,
2013-04-14 09:15:00,23.9,19.2,30.10,ESE,121,0.0,1.0,82,0.00,,,0.00,VWS V14.01,2013-04-14 15:15:00,
2013-04-14 09:20:00,24.1,19.7,30.11,SE,127,0.0,1.0,83,0.00,,,0.00,VWS V14.01,2013-04-14 15:20:00,
2013-04-14 09:25:00,24.1,19.7,30.11,SSE,163,0.0,1.0,83,0.00,,,0.00,VWS V14.01,2013-04-14 15:25:00,
2013-04-14 09:30:00,23.9,19.5,30.11,SSE,160,0.0,1.0,83,0.00,,,0.00,VWS V14.01,2013-04-14 15:30:00,
2013-04-14 09:35:00,23.6,18.9,30.11,SE,131,0.0,0.0,82,0.00,,,0.00,VWS V14.01,2013-04-14 15:35:00,
2013-04-14 09:40:00,23.5,19.1,30.11,SE,126,0.0,0.0,83,0.00,,,0.00,VWS V14.01,2013-04-14 15:40:00,
2013-04-14 09:45:00,23.3,18.9,30.12,SE,130,0.0,1.0,83,0.00,,,0.00,VWS V14.01,2013-04-14 15:45:00,
2013-04-14 09:50:00,23.5,19.4,30.12,SE,128,0.0,1.0,84,0.00,,,0.00,VWS V14.01,2013-04-14 15:50:00,
2013-04-14 09:55:00,23.6,19.5,30.12,SE,132,0.0,1.0,84,0.00,,,0.00,VWS V14.01,2013-04-14 15:55:00,
2013-04-14 10:00:00,23.8,19.4,30.12,South,171,0.0,1.0,83,0.00,,,0.00,VWS V14.01,2013-04-14 16:00:00,
2013-04-14 10:05:00,23.8,19.1,30.12,South,184,0.0,0.0,82,0.00,,,0.00,VWS V14.01,2013-04-14 16:05:00,
2013-04-14 10:10:00,23.8,19.1,30.12,SE,129,0.0,0.0,82,0.00,,,0.00,VWS V14.01,2013-04-14 16:10:00,
2013-04-14 10:15:00,23.9,18.9,30.13,SE,136,0.0,0.0,81,0.00,,,0.00,VWS V14.01,2013-04-14 16:15:00,
2013-04-14 10:20:00,24.1,18.8,30.13,SE,143,0.0,0.0,80,0.00,,,0.00,VWS V14.01,2013-04-14 16:20:00,
2013-04-14 10:25:00,24.1,18.5,30.13,SE,127,0.0,0.0,79,0.00,,,0.00,VWS V14.01,2013-04-14 16:25:00,
2013-04-14 10:30:00,23.9,18.0,30.13,SSE,158,0.0,0.0,78,0.00,,,0.00,VWS V14.01,2013-04-14 16:30:00,
2013-04-14 10:35:00,23.9,18.0,30.13,South,172,0.0,4.0,78,0.00,,,0.00,VWS V14.01,2013-04-14 16:35:00,
2013-04-14 10:40:00,24.1,18.5,30.13,South,172,0.0,4.0,79,0.00,,,0.00,VWS V14.01,2013-04-14 16:40:00,
2013-04-14 10:45:00,24.4,18.8,30.13,SE,124,0.0,4.0,79,0.00,,,0.00,VWS V14.01,2013-04-14 16:45:00,
2013-04-14 10:50:00,24.4,18.5,30.14,SE,130,0.0,4.0,78,0.00,,,0.00,VWS V14.01,2013-04-14 16:50:00,
2013-04-14 10:55:00,24.5,18.9,30.14,South,169,0.0,4.0,79,0.00,,,0.00,VWS V14.01,2013-04-14 16:55:00,
2013-04-14 11:00:00,24.4,18.5,30.14,ESE,121,0.0,4.0,78,0.00,,,0.00,VWS V14.01,2013-04-14 17:00:00,
2013-04-14 11:05:00,24.4,18.5,30.14,SSE,157,0.0,0.0,78,0.00,,,0.00,VWS V14.01,2013-04-14 17:05:00,
2013-04-14 11:10:00,24.2,18.3,30.14,SSE,153,0.0,0.0,78,0.00,,,0.00,VWS V14.01,2013-04-14 17:10:00,
2013-04-14 11:15:00,24.4,18.8,30.14,SSE,148,0.0,0.0,79,0.00,,,0.00,VWS V14.01,2013-04-14 17:15:00,
2013-04-14 11:20:00,24.5,18.6,30.13,SE,138,0.0,0.0,78,0.00,,,0.00,VWS V14.01,2013-04-14 17:20:00,
2013-04-14 11:25:00,24.5,18.6,30.13,South,174,0.0,0.0,78,0.00,,,0.00,VWS V14.01,2013-04-14 17:25:00,
2013-04-14 11:30:00,24.5,18.6,30.13,ESE,122,0.0,0.0,78,0.00,,,0.00,VWS V14.01,2013-04-14 17:30:00,
2013-04-14 11:35:00,24.7,18.8,30.14,ESE,115,0.0,0.0,78,0.00,,,0.00,VWS V14.01,2013-04-14 17:35:00,
2013-04-14 11:40:00,24.8,18.9,30.14,South,172,0.0,0.0,78,0.00,,,0.00,VWS V14.01,2013-04-14 17:40:00,
2013-04-14 11:45:00,24.8,18.6,30.14,SSE,155,0.0,2.0,77,0.00,,,0.00,VWS V14.01,2013-04-14 17:45:00,
2013-04-14 11:50:00,24.8,18.6,30.14,SE,124,0.0,2.0,77,0.00,,,0.00,VWS V14.01,2013-04-14 17:50:00,
2013-04-14 11:55:00,25.3,19.1,30.14,SSE,155,0.0,2.0,77,0.00,,,0.00,VWS V14.01,2013-04-14 17:55:00,
2013-04-14 12:00:00,25.3,18.8,30.14,SE,139,0.0,2.0,76,0.00,,,0.00,VWS V14.01,2013-04-14 18:00:00,
2013-04-14 12:05:00,25.4,18.9,30.14,SE,130,0.0,0.0,76,0.00,,,0.00,VWS V14.01,2013-04-14 18:05:00,
2013-04-14 12:10:00,25.8,19.3,30.14,SE,133,0.0,0.0,76,0.00,,,0.00,VWS V14.01,2013-04-14 18:10:00,
2013-04-14 12:15:00,26.1,19.3,30.14,SSE,160,0.0,0.0,75,0.00,,,0.00,VWS V14.01,2013-04-14 18:15:00,
2013-04-14 12:20:00,26.1,19.3,30.15,SSE,153,0.0,0.0,75,0.00,,,0.00,VWS V14.01,2013-04-14 18:20:00,
2013-04-14 12:25:00,26.4,19.6,30.15,ESE,120,0.0,0.0,75,0.00,,,0.00,VWS V14.01,2013-04-14 18:25:00,
2013-04-14 12:30:00,26.6,19.4,30.15,SE,141,0.0,0.0,74,0.00,,,0.00,VWS V14.01,2013-04-14 18:30:00,
2013-04-14 12:35:00,27.0,19.8,30.15,ESE,120,0.0,0.0,74,0.00,,,0.00,VWS V14.01,2013-04-14 18:35:00,
2013-04-14 12:40:00,26.9,19.7,30.15,SE,131,0.0,1.0,74,0.00,,,0.00,VWS V14.01,2013-04-14 18:40:00,
2013-04-14 12:45:00,26.4,19.6,30.15,SSE,152,0.0,1.0,75,0.00,,,0.00,VWS V14.01,2013-04-14 18:45:00,
2013-04-14 12:50:00,26.1,19.3,30.15,South,172,0.0,1.0,75,0.00,,,0.00,VWS V14.01,2013-04-14 18:50:00,
2013-04-14 12:55:00,26.3,19.8,30.15,SSE,153,0.0,1.0,76,0.00,,,0.00,VWS V14.01,2013-04-14 18:55:00,
2013-04-14 13:00:00,26.4,19.9,30.15,SSE,147,0.0,1.0,76,0.00,,,0.00,VWS V14.01,2013-04-14 19:00:00,
2013-04-14 13:05:00,26.1,19.6,30.16,SSE,147,0.0,6.0,76,0.00,,,0.00,VWS V14.01,2013-04-14 19:05:00,
2013-04-14 13:10:00,26.1,20.2,30.16,SSE,155,0.0,6.0,78,0.00,,,0.00,VWS V14.01,2013-04-14 19:10:00,
2013-04-14 13:15:00,26.3,20.4,30.16,SE,129,0.0,6.0,78,0.00,,,0.00,VWS V14.01,2013-04-14 19:15:00,
2013-04-14 13:20:00,26.3,20.4,30.16,SSE,147,0.0,6.0,78,0.00,,,0.00,VWS V14.01,2013-04-14 19:20:00,
2013-04-14 13:25:00,26.3,20.1,30.16,SSE,148,0.0,6.0,77,0.00,,,0.00,VWS V14.01,2013-04-14 19:25:00,
2013-04-14 13:30:00,26.0,20.1,30.16,SE,131,0.0,6.0,78,0.00,,,0.00,VWS V14.01,2013-04-14 19:30:00,
2013-04-14 13:35:00,26.1,20.2,30.16,SSE,148,0.0,1.0,78,0.00,,,0.00,VWS V14.01,2013-04-14 19:35:00,
2013-04-14 13:40:00,26.1,20.5,30.16,SSE,160,0.0,1.0,79,0.00,,,0.00,VWS V14.01,2013-04-14 19:40:00,
2013-04-14 13:45:00,26.1,20.8,30.16,SE,134,0.0,1.0,80,0.00,,,0.00,VWS V14.01,2013-04-14 19:45:00,
2013-04-14 13:50:00,25.8,20.8,30.16,ESE,105,0.0,1.0,81,0.00,,,0.00,VWS V14.01,2013-04-14 19:50:00,
2013-04-14 13:55:00,25.7,20.4,30.16,SE,141,0.0,3.0,80,0.00,,,0.00,VWS V14.01,2013-04-14 19:55:00,
2013-04-14 14:00:00,25.8,20.8,30.16,South,170,0.0,3.0,81,0.00,,,0.00,VWS V14.01,2013-04-14 20:00:00,
2013-04-14 14:05:00,25.6,20.3,30.16,ESE,122,0.0,9.0,80,0.00,,,0.00,VWS V14.01,2013-04-14 20:05:00,
2013-04-14 14:10:00,25.3,20.3,30.16,SE,138,0.0,9.0,81,0.00,,,0.00,VWS V14.01,2013-04-14 20:10:00,
2013-04-14 14:15:00,25.1,20.1,30.16,ESE,118,0.0,9.0,81,0.00,,,0.00,VWS V14.01,2013-04-14 20:15:00,
2013-04-14 14:20:00,25.0,20.3,30.18,SE,137,0.0,9.0,82,0.00,,,0.00,VWS V14.01,2013-04-14 20:20:00,
2013-04-14 14:25:00,25.1,20.4,30.18,SSE,155,0.0,9.0,82,0.00,,,0.00,VWS V14.01,2013-04-14 20:25:00,
2013-04-14 14:30:00,25.3,20.6,30.18,SSE,149,0.0,9.0,82,0.00,,,0.00,VWS V14.01,2013-04-14 20:30:00,
2013-04-14 14:35:00,25.4,20.4,30.18,SSE,151,0.0,0.0,81,0.00,,OVC030,0.00,VWS V14.01,2013-04-14 20:35:00,
2013-04-14 14:40:00,25.7,20.1,30.18,ESE,118,0.0,1.0,79,0.00,,OVC030,0.00,VWS V14.01,2013-04-14 20:40:00,
2013-04-14 14:45:00,25.7,19.8,30.18,ESE,120,0.0,3.0,78,0.00,,OVC030,0.00,VWS V14.01,2013-04-14 20:45:00,
2013-04-14 14:50:00,26.0,20.1,30.17,SE,139,0.0,3.0,78,0.00,,OVC030,0.00,VWS V14.01,2013-04-14 20:50:00,
2013-04-14 14:55:00,26.1,19.9,30.17,SE,129,0.0,3.0,77,0.00,,OVC030,0.00,VWS V14.01,2013-04-14 20:55:00,
2013-04-14 15:00:00,26.6,20.7,30.17,SE,131,0.0,3.0,78,0.00,,OVC030,0.00,VWS V14.01,2013-04-14 21:00:00,
2013-04-14 15:05:00,26.3,20.1,30.17,SSE,151,0.0,2.0,77,0.00,,OVC030,0.00,VWS V14.01,2013-04-14 21:05:00,
2013-04-14 15:10:00,25.8,19.9,30.17,SE,139,0.0,3.0,78,0.00,,OVC030,0.00,VWS V14.01,2013-04-14 21:10:00,
2013-04-14 15:15:00,25.4,19.8,30.17,SSE,163,0.0,3.0,79,0.00,,OVC030,0.00,VWS V14.01,2013-04-14 21:15:00,
2013-04-14 15:20:00,25.3,20.3,30.19,SE,128,0.0,5.0,81,0.00,,OVC030,0.00,VWS V14.01,2013-04-14 21:20:00,
2013-04-14 15:25:00,25.1,20.1,30.19,SE,127,0.0,5.0,81,0.00,,OVC030,0.00,VWS V14.01,2013-04-14 21:25:00,
2013-04-14 15:30:00,24.8,20.1,30.19,SE,143,0.0,5.0,82,0.00,,OVC030,0.00,VWS V14.01,2013-04-14 21:30:00,
2013-04-14 15:35:00,25.1,20.4,30.19,ESE,110,0.0,0.0,82,0.00,,OVC025,0.00,VWS V14.01,2013-04-14 21:35:00,
2013-04-14 15:40:00,25.1,20.4,30.19,SSE,167,0.0,0.0,82,0.00,,OVC025,0.00,VWS V14.01,2013-04-14 21:40:00,
2013-04-14 15:45:00,25.3,20.6,30.19,SSE,160,0.0,0.0,82,0.00,,OVC025,0.00,VWS V14.01,2013-04-14 21:45:00,
2013-04-14 15:50:00,25.6,20.6,30.19,SE,141,0.0,1.0,81,0.00,,OVC025,0.00,VWS V14.01,2013-04-14 21:50:00,
2013-04-14 15:55:00,25.6,20.0,30.19,SE,144,0.0,5.0,79,0.00,,OVC025,0.00,VWS V14.01,2013-04-14 21:55:00,
2013-04-14 16:00:00,25.1,19.5,30.19,SSE,150,0.0,5.0,79,0.00,,OVC025,0.00,VWS V14.01,2013-04-14 22:00:00,
2013-04-14 16:05:00,25.0,19.4,30.20,SSE,155,0.0,0.0,79,0.00,,OVC025,0.00,VWS V14.01,2013-04-14 22:05:00,
2013-04-14 16:10:00,25.0,19.7,30.20,SE,139,0.0,0.0,80,0.00,,OVC025,0.00,VWS V14.01,2013-04-14 22:10:00,
2013-04-14 16:15:00,25.1,19.5,30.20,South,176,0.0,1.0,79,0.00,,OVC025,0.00,VWS V14.01,2013-04-14 22:15:00,
2013-04-14 16:20:00,24.8,18.9,30.20,SE,126,0.0,1.0,78,0.00,,OVC025,0.00,VWS V14.01,2013-04-14 22:20:00,
2013-04-14 16:25:00,25.0,19.1,30.20,ESE,121,0.0,1.0,78,0.00,,OVC025,0.00,VWS V14.01,2013-04-14 22:25:00,
2013-04-14 16:30:00,25.0,18.5,30.20,South,170,0.0,1.0,76,0.00,,OVC025,0.00,VWS V14.01,2013-04-14 22:30:00,
2013-04-14 16:35:00,24.8,18.3,30.19,SSE,164,0.0,0.0,76,0.00,,OVC040,0.00,VWS V14.01,2013-04-14 22:35:00,
2013-04-14 16:40:00,25.1,18.6,30.19,SE,134,0.0,0.0,76,0.00,,OVC040,0.00,VWS V14.01,2013-04-14 22:40:00,
2013-04-14 16:45:00,25.4,18.6,30.19,SE,126,0.0,2.0,75,0.00,,OVC040,0.00,VWS V14.01,2013-04-14 22:45:00,
2013-04-14 16:50:00,25.3,18.2,30.19,SSE,165,0.0,2.0,74,0.00,,OVC040,0.00,VWS V14.01,2013-04-14 22:50:00,
2013-04-14 16:55:00,25.3,18.2,30.19,SSE,165,0.0,2.0,74,0.00,,OVC040,0.00,VWS V14.01,2013-04-14 22:55:00,
2013-04-14 17:00:00,25.4,18.3,30.19,SSE,163,0.0,2.0,74,0.00,,OVC040,0.00,VWS V14.01,2013-04-14 23:00:00,
2013-04-14 17:05:00,25.4,18.3,30.20,SE,134,0.0,0.0,74,0.00,,OVC040,0.00,VWS V14.01,2013-04-14 23:05:00,
2013-04-14 17:10:00,25.7,18.3,30.20,SE,138,0.0,0.0,73,0.00,,OVC040,0.00,VWS V14.01,2013-04-14 23:10:00,
2013-04-14 17:15:00,25.8,18.4,30.20,South,173,0.0,0.0,73,0.00,,OVC040,0.00,VWS V14.01,2013-04-14 23:15:00,
2013-04-14 17:20:00,25.8,18.4,30.20,SSE,160,0.0,0.0,73,0.00,,OVC040,0.00,VWS V14.01,2013-04-14 23:20:00,
2013-04-14 17:25:00,25.7,17.9,30.20,SSE,165,0.0,2.0,72,0.00,,OVC040,0.00,VWS V14.01,2013-04-14 23:25:00,
2013-04-14 17:30:00,25.6,17.8,30.20,SE,146,0.0,2.0,72,0.00,,OVC040,0.00,VWS V14.01,2013-04-14 23:30:00,
2013-04-14 17:35:00,25.6,17.5,30.21,SE,139,0.0,1.0,71,0.00,,OVC060,0.00,VWS V14.01,2013-04-14 23:35:00,
2013-04-14 17:40:00,25.6,17.5,30.21,SSE,154,0.0,1.0,71,0.00,,OVC060,0.00,VWS V14.01,2013-04-14 23:40:00,
2013-04-14 17:45:00,25.4,17.3,30.21,SE,133,0.0,1.0,71,0.00,,OVC060,0.00,VWS V14.01,2013-04-14 23:45:00,
2013-04-14 17:50:00,25.3,17.5,30.21,SE,142,0.0,1.0,72,0.00,,OVC060,0.00,VWS V14.01,2013-04-14 23:50:00,
2013-04-14 17:55:00,25.4,18.3,30.21,SSE,147,0.0,1.0,74,0.00,,OVC060,0.00,VWS V14.01,2013-04-14 23:55:00,
2013-04-14 18:00:00,25.4,18.3,30.21,SSE,159,0.0,1.0,74,0.00,,OVC060,0.00,VWS V14.01,2013-04-15 00:00:00,
2013-04-14 18:05:00,25.3,18.2,30.21,ESE,117,0.0,0.0,74,0.00,,OVC060,0.00,VWS V14.01,2013-04-15 00:05:00,
2013-04-14 18:10:00,25.1,18.0,30.21,SSE,150,0.0,0.0,74,0.00,,OVC060,0.00,VWS V14.01,2013-04-15 00:10:00,
2013-04-14 18:15:00,25.0,18.2,30.21,SSE,150,0.0,0.0,75,0.00,,OVC060,0.00,VWS V14.01,2013-04-15 00:15:00,
2013-04-14 18:20:00,25.0,18.2,30.21,SSE,150,0.0,0.0,75,0.00,,OVC060,0.00,VWS V14.01,2013-04-15 00:20:00,
2013-04-14 18:25:00,24.8,17.7,30.21,SSE,159,0.0,0.0,74,0.00,,OVC060,0.00,VWS V14.01,2013-04-15 00:25:00,
2013-04-14 18:30:00,24.8,18.0,30.21,SSE,159,0.0,0.0,75,0.00,,OVC060,0.00,VWS V14.01,2013-04-15 00:30:00,
2013-04-14 18:35:00,24.8,17.7,30.21,SSE,159,0.0,0.0,74,0.00,,,0.00,VWS V14.01,2013-04-15 00:35:00,
2013-04-14 18:40:00,24.7,17.6,30.21,SE,144,0.0,0.0,74,0.00,,,0.00,VWS V14.01,2013-04-15 00:40:00,
2013-04-14 18:45:00,24.5,17.4,30.21,SSE,149,0.0,0.0,74,0.00,,,0.00,VWS V14.01,2013-04-15 00:45:00,
2013-04-14 18:50:00,24.4,17.3,30.22,SSE,150,0.0,0.0,74,0.00,,,0.00,VWS V14.01,2013-04-15 00:50:00,
2013-04-14 18:55:00,24.4,17.3,30.22,SSE,153,0.0,0.0,74,0.00,,,0.00,VWS V14.01,2013-04-15 00:55:00,
2013-04-14 19:00:00,24.2,17.4,30.22,SE,131,0.0,0.0,75,0.00,,,0.00,VWS V14.01,2013-04-15 01:00:00,
2013-04-14 19:05:00,24.2,17.4,30.22,SE,124,0.0,0.0,75,0.00,,,0.00,VWS V14.01,2013-04-15 01:05:00,
2013-04-14 19:10:00,23.9,17.1,30.22,SSE,163,0.0,0.0,75,0.00,,,0.00,VWS V14.01,2013-04-15 01:10:00,
2013-04-14 19:15:00,23.8,17.0,30.22,SSE,163,0.0,0.0,75,0.00,,,0.00,VWS V14.01,2013-04-15 01:15:00,
2013-04-14 19:20:00,23.6,17.2,30.23,SSE,163,0.0,0.0,76,0.00,,,0.00,VWS V14.01,2013-04-15 01:20:00,
2013-04-14 19:25:00,23.6,17.5,30.23,SSE,159,0.0,0.0,77,0.00,,,0.00,VWS V14.01,2013-04-15 01:25:00,
2013-04-14 19:30:00,23.5,17.4,30.23,SSE,159,0.0,0.0,77,0.00,,,0.00,VWS V14.01,2013-04-15 01:30:00,
2013-04-14 19:35:00,23.3,17.2,30.23,SSE,159,0.0,0.0,77,0.00,,,0.00,VWS V14.01,2013-04-15 01:35:00,
2013-04-14 19:40:00,23.2,17.1,30.23,SE,143,0.0,0.0,77,0.00,,,0.00,VWS V14.01,2013-04-15 01:40:00,
2013-04-14 19:45:00,23.2,17.1,30.23,SE,143,0.0,0.0,77,0.00,,,0.00,VWS V14.01,2013-04-15 01:45:00,
2013-04-14 19:50:00,23.0,16.9,30.23,SE,143,0.0,0.0,77,0.00,,,0.00,VWS V14.01,2013-04-15 01:50:00,
2013-04-14 19:55:00,22.7,16.6,30.23,SE,143,0.0,0.0,77,0.00,,,0.00,VWS V14.01,2013-04-15 01:55:00,
2013-04-14 20:00:00,22.7,16.6,30.23,SE,143,0.0,0.0,77,0.00,,,0.00,VWS V14.01,2013-04-15 02:00:00,
2013-04-14 20:05:00,22.5,16.7,30.24,ESE,108,0.0,0.0,78,0.00,,,0.00,VWS V14.01,2013-04-15 02:05:00,
2013-04-14 20:10:00,22.5,16.7,30.24,ESE,108,0.0,0.0,78,0.00,,,0.00,VWS V14.01,2013-04-15 02:10:00,
2013-04-14 20:15:00,22.4,16.9,30.24,ESE,109,0.0,0.0,79,0.00,,,0.00,VWS V14.01,2013-04-15 02:15:00,
2013-04-14 20:20:00,22.4,17.2,30.24,ESE,109,0.0,0.0,80,0.00,,,0.00,VWS V14.01,2013-04-15 02:20:00,
2013-04-14 20:25:00,22.2,16.7,30.24,ESE,109,0.0,0.0,79,0.00,,,0.00,VWS V14.01,2013-04-15 02:25:00,
2013-04-14 20:30:00,22.1,16.6,30.24,ESE,114,0.0,0.0,79,0.00,,,0.00,VWS V14.01,2013-04-15 02:30:00,
2013-04-14 20:35:00,22.1,16.9,30.24,ESE,114,0.0,0.0,80,0.00,,OVC066,0.00,VWS V14.01,2013-04-15 02:35:00,
2013-04-14 20:40:00,21.9,16.7,30.24,SE,131,0.0,0.0,80,0.00,,OVC066,0.00,VWS V14.01,2013-04-15 02:40:00,
2013-04-14 20:45:00,21.9,16.7,30.24,SE,131,0.0,0.0,80,0.00,,OVC066,0.00,VWS V14.01,2013-04-15 02:45:00,
2013-04-14 20:50:00,21.9,16.7,30.24,SE,131,0.0,0.0,80,0.00,,OVC066,0.00,VWS V14.01,2013-04-15 02:50:00,
2013-04-14 20:55:00,21.8,16.9,30.24,SE,131,0.0,0.0,81,0.00,,OVC066,0.00,VWS V14.01,2013-04-15 02:55:00,
2013-04-14 21:00:00,21.8,16.9,30.24,SE,131,0.0,0.0,81,0.00,,OVC066,0.00,VWS V14.01,2013-04-15 03:00:00,
2013-04-14 21:05:00,21.6,16.7,30.25,SE,131,0.0,0.0,81,0.00,,OVC066,0.00,VWS V14.01,2013-04-15 03:05:00,
2013-04-14 21:10:00,21.6,16.7,30.25,SE,124,0.0,0.0,81,0.00,,OVC066,0.00,VWS V14.01,2013-04-15 03:10:00,
2013-04-14 21:15:00,21.6,16.7,30.25,SSE,161,0.0,0.0,81,0.00,,OVC066,0.00,VWS V14.01,2013-04-15 03:15:00,
2013-04-14 21:20:00,21.6,17.0,30.25,SSE,147,0.0,0.0,82,0.00,,OVC066,0.00,VWS V14.01,2013-04-15 03:20:00,
2013-04-14 21:25:00,21.4,16.8,30.25,SSE,148,0.0,0.0,82,0.00,,OVC066,0.00,VWS V14.01,2013-04-15 03:25:00,
2013-04-14 21:30:00,21.3,16.7,30.25,SSE,148,0.0,0.0,82,0.00,,OVC066,0.00,VWS V14.01,2013-04-15 03:30:00,
2013-04-14 21:35:00,21.3,16.7,30.26,SSE,148,0.0,0.0,82,0.00,,,0.00,VWS V14.01,2013-04-15 03:35:00,
2013-04-14 21:40:00,21.4,17.0,30.26,SSE,148,0.0,0.0,83,0.00,,,0.00,VWS V14.01,2013-04-15 03:40:00,
2013-04-14 21:45:00,21.4,16.8,30.26,SE,139,0.0,0.0,82,0.00,,,0.00,VWS V14.01,2013-04-15 03:45:00,
2013-04-14 21:50:00,21.4,17.0,30.26,South,176,0.0,0.0,83,0.00,,,0.00,VWS V14.01,2013-04-15 03:50:00,
2013-04-14 21:55:00,21.4,17.0,30.26,ESE,119,0.0,2.0,83,0.00,,,0.00,VWS V14.01,2013-04-15 03:55:00,
2013-04-14 22:00:00,21.4,17.0,30.26,ESE,119,0.0,2.0,83,0.00,,,0.00,VWS V14.01,2013-04-15 04:00:00,
2013-04-14 22:05:00,21.3,16.7,30.26,ESE,118,0.0,0.0,82,0.00,,,0.00,VWS V14.01,2013-04-15 04:05:00,
2013-04-14 22:10:00,21.3,16.7,30.26,ESE,118,0.0,0.0,82,0.00,,,0.00,VWS V14.01,2013-04-15 04:10:00,
2013-04-14 22:15:00,21.3,16.7,30.26,SE,124,0.0,0.0,82,0.00,,,0.00,VWS V14.01,2013-04-15 04:15:00,
2013-04-14 22:20:00,21.1,16.5,30.26,SE,124,0.0,0.0,82,0.00,,,0.00,VWS V14.01,2013-04-15 04:20:00,
2013-04-14 22:25:00,21.1,16.5,30.26,SE,124,0.0,0.0,82,0.00,,,0.00,VWS V14.01,2013-04-15 04:25:00,
2013-04-14 22:30:00,21.1,16.2,30.27,SE,124,0.0,0.0,81,0.00,,,0.00,VWS V14.01,2013-04-15 04:30:00,
2013-04-14 22:35:00,21.1,16.5,30.27,East,84,0.0,0.0,82,0.00,,,0.00,VWS V14.01,2013-04-15 04:35:00,
2013-04-14 22:40:00,21.1,16.2,30.27,ESE,112,0.0,0.0,81,0.00,,,0.00,VWS V14.01,2013-04-15 04:40:00,
2013-04-14 22:45:00,21.0,16.1,30.27,SE,136,0.0,0.0,81,0.00,,,0.00,VWS V14.01,2013-04-15 04:45:00,
2013-04-14 22:50:00,21.0,16.1,30.27,SE,136,0.0,0.0,81,0.00,,,0.00,VWS V14.01,2013-04-15 04:50:00,
2013-04-14 22:55:00,21.0,16.4,30.27,SE,136,0.0,0.0,82,0.00,,,0.00,VWS V14.01,2013-04-15 04:55:00,
2013-04-14 23:00:00,21.0,16.4,30.27,SE,136,0.0,0.0,82,0.00,,,0.00,VWS V14.01,2013-04-15 05:00:00,
2013-04-14 23:05:00,21.0,16.4,30.26,SE,136,0.0,0.0,82,0.00,,,0.00,VWS V14.01,2013-04-15 05:05:00,
2013-04-14 23:10:00,21.0,16.4,30.26,SE,136,0.0,0.0,82,0.00,,,0.00,VWS V14.01,2013-04-15 05:10:00,
2013-04-14 23:15:00,21.0,16.4,30.26,SE,136,0.0,0.0,82,0.00,,,0.00,VWS V14.01,2013-04-15 05:15:00,
2013-04-14 23:20:00,20.8,16.2,30.25,SE,136,0.0,0.0,82,0.00,,,0.00,VWS V14.01,2013-04-15 05:20:00,
2013-04-14 23:25:00,20.8,16.2,30.25,SE,136,0.0,0.0,82,0.00,,,0.00,VWS V14.01,2013-04-15 05:25:00,
2013-04-14 23:30:00,20.8,16.2,30.25,SE,136,0.0,0.0,82,0.00,,,0.00,VWS V14.01,2013-04-15 05:30:00,
2013-04-14 23:35:00,20.8,16.2,30.25,SE,133,0.0,0.0,82,0.00,,OVC083,0.00,VWS V14.01,2013-04-15 05:35:00,
2013-04-14 23:40:00,20.8,15.9,30.25,SE,126,0.0,0.0,81,0.00,,OVC083,0.00,VWS V14.01,2013-04-15 05:40:00,
2013-04-14 23:45:00,20.6,15.7,30.25,SE,126,0.0,0.0,81,0.00,,OVC083,0.00,VWS V14.01,2013-04-15 05:45:00,
2013-04-14 23:50:00,20.6,15.7,30.25,SE,126,0.0,0.0,81,0.00,,OVC083,0.00,VWS V14.01,2013-04-15 05:50:00,
2013-04-14 23:55:00,20.6,15.7,30.25,SSE,148,0.0,0.0,81,0.00,,OVC083,0.00,VWS V14.01,2013-04-15 05:55:00,